createdAt,value
2023-01-07T00:00:37.292Z,3.17
2023-01-07T00:03:43.831Z,3.97
2023-01-07T00:06:54.997Z,3.80
2023-01-07T00:10:06.717Z,3.60
2023-01-07T00:13:14.247Z,3.27
2023-01-07T00:16:23.145Z,3.13
2023-01-07T00:19:30.470Z,3.80
2023-01-07T00:22:36.860Z,4.00
2023-01-07T00:25:45.236Z,3.73
2023-01-07T00:28:53.548Z,3.23
2023-01-07T00:32:01.658Z,3.90
2023-01-07T00:35:24.512Z,4.00
2023-01-07T00:38:30.876Z,3.80
2023-01-07T00:41:38.679Z,3.50
2023-01-07T00:44:45.347Z,3.47
2023-01-07T00:47:53.732Z,3.37
2023-01-07T00:51:01.433Z,3.33
2023-01-07T00:54:09.535Z,4.07
2023-01-07T00:57:17.551Z,3.07
2023-01-07T01:00:26.097Z,2.60
2023-01-07T01:03:34.949Z,2.90
2023-01-07T01:06:42.998Z,3.70
2023-01-07T01:09:49.418Z,3.13
2023-01-07T01:12:58.188Z,3.17
2023-01-07T01:16:09.028Z,3.60
2023-01-07T01:19:18.769Z,2.27
2023-01-07T01:22:25.309Z,3.70
2023-01-07T01:25:32.719Z,3.03
2023-01-07T01:28:40.419Z,3.73
2023-01-07T01:31:49.990Z,3.23
2023-01-07T01:34:56.994Z,2.27
2023-01-07T01:38:05.007Z,2.53
2023-01-07T01:41:12.286Z,3.63
2023-01-07T01:44:40.398Z,3.07
2023-01-07T01:47:54.312Z,3.60
2023-01-07T01:51:01.871Z,3.57
2023-01-07T01:54:13.205Z,3.60
2023-01-07T01:57:21.983Z,3.60
2023-01-07T02:00:35.169Z,3.67
2023-01-07T02:03:43.087Z,3.50
2023-01-07T02:07:00.219Z,3.50
2023-01-07T02:10:15.663Z,4.00
2023-01-07T02:13:34.898Z,3.37
2023-01-07T02:16:51.252Z,3.73
2023-01-07T02:20:32.670Z,3.67
2023-01-07T02:24:05.128Z,3.50
2023-01-07T02:27:21.189Z,2.90
2023-01-07T02:31:10.230Z,3.33
2023-01-07T02:34:26.101Z,3.57
2023-01-07T02:37:39.056Z,3.30
2023-01-07T02:40:53.209Z,3.77
2023-01-07T02:44:05.960Z,3.60
2023-01-07T02:47:21.831Z,3.83
2023-01-07T02:50:32.683Z,2.00
2023-01-07T02:53:39.443Z,3.20
2023-01-07T02:57:02.952Z,2.80
2023-01-07T03:00:26.503Z,3.43
2023-01-07T03:03:43.049Z,2.03
2023-01-07T03:07:00.679Z,3.50
2023-01-07T03:10:14.840Z,2.33
2023-01-07T03:13:26.488Z,3.07
2023-01-07T03:16:35.694Z,3.53
2023-01-07T03:19:44.776Z,3.50
2023-01-07T03:22:53.369Z,3.03
2023-01-07T03:26:03.334Z,2.87
2023-01-07T03:29:16.531Z,2.27
2023-01-07T03:32:28.606Z,1.80
2023-01-07T03:35:36.466Z,3.60
2023-01-07T03:38:45.991Z,3.07
2023-01-07T03:42:10.919Z,3.53
2023-01-07T03:45:23.826Z,2.77
2023-01-07T03:48:30.907Z,3.67
2023-01-07T03:51:38.933Z,3.43
2023-01-07T03:54:51.508Z,3.40
2023-01-07T03:57:59.179Z,3.17
2023-01-07T04:01:07.644Z,3.47
2023-01-07T04:04:14.391Z,3.67
2023-01-07T04:07:22.044Z,3.30
2023-01-07T04:10:32.203Z,3.20
2023-01-07T04:13:37.519Z,3.53
2023-01-07T04:16:44.220Z,3.53
2023-01-07T04:19:52.705Z,4.00
2023-01-07T04:23:01.020Z,3.47
2023-01-07T04:26:09.857Z,4.20
2023-01-07T04:29:20.763Z,3.50
2023-01-07T04:32:28.599Z,3.20
2023-01-07T04:35:36.872Z,3.50
2023-01-07T04:38:44.444Z,3.80
2023-01-07T04:41:53.986Z,3.90
2023-01-07T04:45:01.813Z,4.03
2023-01-07T04:48:08.705Z,3.63
2023-01-07T04:51:14.941Z,3.53
2023-01-07T04:54:22.621Z,3.40
2023-01-07T04:57:35.232Z,3.37
2023-01-07T05:00:41.962Z,3.80
2023-01-07T05:03:48.462Z,3.70
2023-01-07T05:06:56.199Z,3.93
2023-01-07T05:10:06.226Z,3.90
2023-01-07T05:13:19.647Z,3.27
2023-01-07T05:16:29.204Z,3.77
2023-01-07T05:19:39.928Z,3.37
2023-01-07T05:22:50.294Z,4.20
2023-01-07T05:25:58.614Z,3.70
2023-01-07T05:29:07.295Z,3.73
2023-01-07T05:32:14.778Z,3.20
2023-01-07T05:35:21.235Z,3.73
2023-01-07T05:38:26.900Z,3.63
2023-01-07T05:41:33.282Z,3.53
2023-01-07T05:44:42.770Z,4.20
2023-01-07T05:47:48.680Z,4.00
2023-01-07T05:50:56.737Z,4.10
2023-01-07T05:54:02.261Z,3.53
2023-01-07T05:57:08.285Z,4.13
2023-01-07T06:00:16.803Z,3.97
2023-01-07T06:03:22.685Z,4.30
2023-01-07T06:06:28.782Z,4.03
2023-01-07T06:09:34.249Z,3.90
2023-01-07T06:12:41.317Z,2.97
2023-01-07T06:15:48.505Z,4.20
2023-01-07T06:18:54.429Z,4.23
2023-01-07T06:22:00.227Z,3.57
2023-01-07T06:25:06.763Z,4.50
2023-01-07T06:28:14.069Z,4.03
2023-01-07T06:31:21.847Z,4.17
2023-01-07T06:34:27.755Z,4.67
2023-01-07T06:37:33.247Z,4.53
2023-01-07T06:40:39.438Z,4.07
2023-01-07T06:43:46.769Z,4.70
2023-01-07T06:46:53.917Z,3.97
2023-01-07T06:50:00.047Z,4.77
2023-01-07T06:53:05.830Z,5.00
2023-01-07T06:56:12.520Z,4.57
2023-01-07T06:59:18.223Z,4.47
2023-01-07T07:02:26.612Z,4.13
2023-01-07T07:05:32.608Z,4.70
2023-01-07T07:08:38.534Z,4.20
2023-01-07T07:11:43.945Z,4.40
2023-01-07T07:14:49.933Z,4.53
2023-01-07T07:17:57.152Z,2.37
2023-01-07T07:21:03.284Z,4.83
2023-01-07T07:24:09.840Z,5.10
2023-01-07T07:27:15.966Z,4.57
2023-01-07T07:30:21.680Z,3.63
2023-01-07T07:33:48.852Z,4.03
2023-01-07T07:36:54.683Z,3.93
2023-01-07T07:40:00.374Z,4.33
2023-01-07T07:43:11.052Z,4.60
2023-01-07T07:46:18.222Z,3.67
2023-01-07T07:49:25.650Z,4.37
2023-01-07T07:52:30.827Z,4.13
2023-01-07T07:55:38.007Z,4.30
2023-01-07T07:58:44.444Z,4.20
2023-01-07T08:01:50.831Z,5.07
2023-01-07T08:04:57.869Z,4.10
2023-01-07T08:08:10.225Z,4.40
2023-01-07T08:11:15.789Z,3.77
2023-01-07T08:14:22.103Z,2.30
2023-01-07T08:17:27.863Z,4.63
2023-01-07T08:20:35.385Z,4.87
2023-01-07T08:23:41.654Z,5.20
2023-01-07T08:26:47.041Z,4.20
2023-01-07T08:29:53.271Z,4.50
2023-01-07T08:32:59.397Z,4.00
2023-01-07T08:36:22.007Z,4.20
2023-01-07T08:39:28.744Z,4.20
2023-01-07T08:42:35.026Z,5.10
2023-01-07T08:45:41.064Z,4.13
2023-01-07T08:48:48.233Z,5.80
2023-01-07T08:51:55.744Z,5.10
2023-01-07T08:55:01.504Z,5.13
2023-01-07T08:58:07.081Z,4.60
2023-01-07T09:01:13.591Z,5.17
2023-01-07T09:04:19.354Z,5.10
2023-01-07T09:07:26.086Z,5.80
2023-01-07T09:10:32.249Z,4.97
2023-01-07T09:13:37.577Z,5.87
2023-01-07T09:16:43.490Z,5.87
2023-01-07T09:19:49.790Z,6.07
2023-01-07T09:23:04.300Z,5.73
2023-01-07T09:26:10.391Z,4.53
2023-01-07T09:29:18.054Z,5.87
2023-01-07T09:32:25.034Z,6.17
2023-01-07T09:35:31.052Z,5.37
2023-01-07T09:38:38.665Z,3.50
2023-01-07T09:41:49.944Z,5.00
2023-01-07T09:45:07.288Z,5.13
2023-01-07T09:48:20.146Z,5.30
2023-01-07T09:51:28.167Z,5.90
2023-01-07T09:54:37.685Z,3.30
2023-01-07T09:57:44.391Z,4.47
2023-01-07T10:00:58.590Z,5.10
2023-01-07T10:04:17.029Z,3.67
2023-01-07T10:07:27.426Z,4.43
2023-01-07T10:10:40.144Z,4.00
2023-01-07T10:14:06.516Z,5.17
2023-01-07T10:17:26.561Z,4.80
2023-01-07T10:20:37.804Z,5.40
2023-01-07T10:23:45.548Z,5.03
2023-01-07T10:26:54.775Z,5.03
2023-01-07T10:30:04.494Z,5.33
2023-01-07T10:33:25.203Z,6.17
2023-01-07T10:36:34.967Z,5.10
2023-01-07T10:39:47.483Z,4.90
2023-01-07T10:42:59.157Z,5.10
2023-01-07T10:46:32.760Z,5.17
2023-01-07T10:49:51.906Z,4.97
2023-01-07T10:53:04.533Z,5.33
2023-01-07T10:56:20.937Z,4.40
2023-01-07T10:59:28.516Z,4.73
2023-01-07T11:02:33.946Z,4.87
2023-01-07T11:05:41.510Z,5.53
2023-01-07T11:08:48.477Z,4.50
2023-01-07T11:11:54.936Z,5.27
2023-01-07T11:15:05.214Z,5.10
2023-01-07T11:18:15.849Z,4.70
2023-01-07T11:21:43.483Z,5.00
2023-01-07T11:24:49.940Z,5.37
2023-01-07T11:27:55.666Z,5.47
2023-01-07T11:31:03.248Z,5.33
2023-01-07T11:34:17.868Z,5.30
2023-01-07T11:37:38.482Z,4.80
2023-01-07T11:40:59.859Z,5.43
2023-01-07T11:44:07.553Z,5.30
2023-01-07T11:47:17.480Z,4.87
2023-01-07T11:50:25.700Z,5.03
2023-01-07T11:53:37.375Z,4.33
2023-01-07T11:56:42.772Z,3.30
2023-01-07T11:59:48.855Z,4.80
2023-01-07T12:03:11.253Z,3.83
2023-01-07T12:06:20.852Z,4.83
2023-01-07T12:09:36.666Z,4.87
2023-01-07T12:12:46.343Z,4.90
2023-01-07T12:15:54.173Z,4.87
2023-01-07T12:19:12.371Z,4.40
2023-01-07T12:22:28.786Z,4.33
2023-01-07T12:25:41.998Z,4.20
2023-01-07T12:29:02.735Z,4.67
2023-01-07T12:32:21.738Z,3.43
2023-01-07T12:35:31.409Z,4.83
2023-01-07T12:41:00.226Z,4.60
2023-01-07T12:43:33.763Z,5.20
2023-01-07T12:46:42.428Z,5.80
2023-01-07T12:49:52.952Z,5.63
2023-01-07T12:53:03.300Z,5.93
2023-01-07T12:56:16.596Z,5.00
2023-01-07T13:02:54.712Z,5.20
2023-01-07T13:06:03.488Z,6.53
2023-01-07T13:09:18.273Z,6.57
2023-01-07T13:12:45.579Z,6.47
2023-01-07T13:15:51.950Z,6.30
2023-01-07T13:18:57.824Z,7.23
2023-01-07T13:22:03.524Z,7.20
2023-01-07T13:25:18.658Z,7.43
2023-01-07T13:28:40.824Z,7.13
2023-01-07T13:32:09.333Z,6.60
2023-01-07T13:35:50.468Z,7.63
2023-01-07T13:39:23.021Z,7.83
2023-01-07T13:42:39.148Z,7.87
2023-01-07T13:45:48.407Z,8.70
2023-01-07T13:52:31.995Z,9.47
2023-01-07T13:55:40.653Z,9.10
2023-01-07T13:58:59.164Z,8.13
2023-01-07T14:02:23.041Z,8.47
2023-01-07T14:05:29.532Z,8.87
2023-01-07T14:08:35.691Z,7.43
2023-01-07T14:11:49.482Z,10.30
2023-01-07T14:15:06.388Z,9.00
2023-01-07T14:18:34.704Z,10.03
2023-01-07T14:22:04.948Z,9.27
2023-01-07T14:25:30.646Z,11.03
2023-01-07T14:29:14.910Z,10.73
2023-01-07T14:32:36.735Z,9.80
2023-01-07T14:35:43.826Z,10.70
2023-01-07T14:39:04.494Z,9.37
2023-01-07T14:42:42.206Z,7.47
2023-01-07T14:45:55.710Z,8.93
2023-01-07T14:49:47.932Z,9.60
2023-01-07T14:53:23.725Z,9.47
2023-01-07T14:56:36.985Z,8.53
2023-01-07T15:00:41.476Z,9.27
2023-01-07T15:04:18.352Z,9.67
2023-01-07T15:07:27.294Z,9.60
2023-01-07T15:10:50.074Z,7.60
2023-01-07T15:14:16.604Z,8.27
2023-01-07T15:17:22.394Z,8.10
2023-01-07T15:20:32.294Z,10.47
2023-01-07T15:23:53.291Z,9.23
2023-01-07T15:27:03.824Z,10.27
2023-01-07T15:30:18.318Z,10.43
2023-01-07T15:33:50.392Z,10.00
2023-01-07T15:36:56.184Z,10.00
2023-01-07T15:40:03.586Z,10.97
2023-01-07T15:43:23.453Z,11.60
2023-01-07T15:46:29.804Z,10.97
2023-01-07T15:49:35.182Z,11.70
2023-01-07T15:52:41.181Z,10.50
2023-01-07T15:55:54.898Z,11.50
2023-01-07T15:59:00.374Z,10.03
2023-01-07T16:02:20.340Z,11.13
2023-01-07T16:05:27.381Z,10.47
2023-01-07T16:08:34.571Z,11.80
2023-01-07T16:11:41.915Z,10.93
2023-01-07T16:14:47.123Z,11.87
2023-01-07T16:17:53.450Z,10.00
2023-01-07T16:21:01.222Z,11.10
2023-01-07T16:24:07.881Z,8.47
2023-01-07T16:27:16.094Z,10.37
2023-01-07T16:30:21.835Z,11.63
2023-01-07T16:33:30.007Z,10.07
2023-01-07T16:36:39.664Z,12.23
2023-01-07T16:39:47.679Z,12.43
2023-01-07T16:42:55.487Z,11.07
2023-01-07T16:46:18.282Z,12.03
2023-01-07T16:49:29.705Z,11.93
2023-01-07T16:52:35.964Z,10.57
2023-01-07T16:55:49.960Z,12.37
2023-01-07T16:58:57.749Z,11.90
2023-01-07T17:02:12.796Z,11.73
2023-01-07T17:05:20.466Z,10.37
2023-01-07T17:08:26.012Z,11.53
2023-01-07T17:11:36.004Z,11.17
2023-01-07T17:14:51.257Z,12.00
2023-01-07T17:18:29.020Z,11.37
2023-01-07T17:21:42.865Z,11.13
2023-01-07T17:24:49.862Z,11.47
2023-01-07T17:27:57.555Z,11.00
2023-01-07T17:31:05.393Z,11.63
2023-01-07T17:34:12.991Z,11.93
2023-01-07T17:37:19.852Z,12.30
2023-01-07T17:40:25.550Z,11.20
2023-01-07T17:43:33.858Z,8.37
2023-01-07T17:46:41.102Z,11.87
2023-01-07T17:49:47.570Z,12.80
2023-01-07T17:52:55.028Z,12.53
2023-01-07T17:56:02.207Z,12.07
2023-01-07T17:59:07.761Z,10.40
2023-01-07T18:02:19.444Z,12.20
2023-01-07T18:05:26.895Z,11.27
2023-01-07T18:08:32.904Z,9.60
2023-01-07T18:11:57.986Z,12.83
2023-01-07T18:15:05.040Z,12.87
2023-01-07T18:18:13.848Z,12.27
2023-01-07T18:21:27.260Z,11.60
2023-01-07T18:24:40.154Z,12.27
2023-01-07T18:27:45.992Z,11.63
2023-01-07T18:30:51.755Z,10.97
2023-01-07T18:33:59.075Z,11.97
2023-01-07T18:37:04.567Z,10.90
2023-01-07T18:40:12.009Z,11.70
2023-01-07T18:43:19.187Z,12.13
2023-01-07T18:46:24.979Z,11.43
2023-01-07T18:49:32.296Z,11.83
2023-01-07T18:52:39.950Z,12.30
2023-01-07T18:55:46.273Z,10.83
2023-01-07T18:58:55.056Z,11.63
2023-01-07T19:02:01.104Z,12.17
2023-01-07T19:05:09.587Z,10.23
2023-01-07T19:08:15.535Z,9.73
2023-01-07T19:11:21.223Z,13.80
2023-01-07T19:14:26.595Z,11.80
2023-01-07T19:17:32.581Z,12.67
2023-01-07T19:20:39.824Z,11.50
2023-01-07T19:23:45.073Z,11.73
2023-01-07T19:26:51.896Z,12.23
2023-01-07T19:29:57.938Z,13.27
2023-01-07T19:33:03.288Z,12.93
2023-01-07T19:36:12.868Z,13.07
2023-01-07T19:39:21.105Z,14.00
2023-01-07T19:42:27.220Z,14.37
2023-01-07T19:45:32.931Z,13.50
2023-01-07T19:48:38.698Z,12.87
2023-01-07T19:51:46.079Z,14.27
2023-01-07T19:54:51.437Z,13.27
2023-01-07T19:57:57.647Z,11.23
2023-01-07T20:01:07.233Z,12.43
2023-01-07T20:04:14.393Z,14.53
2023-01-07T20:07:21.557Z,12.53
2023-01-07T20:10:27.996Z,11.27
2023-01-07T20:13:35.034Z,14.77
2023-01-07T20:16:41.884Z,14.50
2023-01-07T20:19:47.426Z,13.70
2023-01-07T20:22:55.087Z,15.60
2023-01-07T20:26:02.225Z,14.43
2023-01-07T20:29:07.966Z,14.00
2023-01-07T20:32:14.225Z,14.60
2023-01-07T20:35:19.708Z,14.70
2023-01-07T20:38:26.933Z,14.63
2023-01-07T20:41:32.470Z,14.53
2023-01-07T20:44:38.161Z,14.63
2023-01-07T20:47:43.748Z,15.37
2023-01-07T20:50:49.437Z,14.97
2023-01-07T20:53:56.736Z,14.43
2023-01-07T20:57:02.849Z,16.67
2023-01-07T21:00:08.906Z,15.23
2023-01-07T21:03:14.661Z,14.53
2023-01-07T21:06:21.807Z,14.27
2023-01-07T21:09:29.626Z,13.87
2023-01-07T21:12:35.170Z,14.67
2023-01-07T21:15:41.022Z,13.90
2023-01-07T21:18:47.255Z,13.67
2023-01-07T21:21:53.070Z,14.53
2023-01-07T21:24:59.826Z,14.63
2023-01-07T21:28:06.802Z,12.93
2023-01-07T21:31:13.430Z,14.67
2023-01-07T21:34:19.304Z,13.03
2023-01-07T21:37:24.719Z,14.47
2023-01-07T21:40:32.062Z,13.73
2023-01-07T21:43:37.696Z,13.50
2023-01-07T21:46:43.368Z,13.93
2023-01-07T21:49:49.879Z,13.77
2023-01-07T21:52:55.673Z,12.73
2023-01-07T21:56:07.781Z,13.70
2023-01-07T21:59:13.563Z,12.50
2023-01-07T22:02:19.007Z,13.03
2023-01-07T22:05:24.738Z,12.63
2023-01-07T22:08:30.419Z,11.53
2023-01-07T22:11:41.678Z,9.73
2023-01-07T22:14:48.236Z,10.00
2023-01-07T22:17:53.927Z,9.53
2023-01-07T22:20:59.028Z,9.70
2023-01-07T22:24:04.848Z,10.27
2023-01-07T22:27:12.907Z,9.00
2023-01-07T22:30:19.928Z,9.27
2023-01-07T22:33:25.647Z,8.50
2023-01-07T22:36:34.048Z,9.50
2023-01-07T22:39:41.681Z,9.47
2023-01-07T22:42:53.322Z,9.93
2023-01-07T22:46:00.635Z,7.60
2023-01-07T22:49:06.086Z,6.10
2023-01-07T22:52:12.705Z,10.30
2023-01-07T22:55:18.779Z,8.37
2023-01-07T22:58:26.140Z,9.13
2023-01-07T23:01:32.280Z,9.20
2023-01-07T23:04:38.553Z,9.83
2023-01-07T23:07:43.839Z,9.53
2023-01-07T23:10:49.781Z,10.27
2023-01-07T23:13:57.337Z,8.50
2023-01-07T23:17:03.494Z,10.03
2023-01-07T23:20:09.489Z,11.57
2023-01-07T23:23:15.425Z,11.37
2023-01-07T23:26:20.867Z,10.03
2023-01-07T23:29:28.204Z,11.67
2023-01-07T23:32:33.434Z,12.37
2023-01-07T23:35:39.359Z,13.33
2023-01-07T23:38:44.783Z,11.30
2023-01-07T23:41:50.476Z,11.87
2023-01-07T23:44:57.749Z,11.80
2023-01-07T23:48:05.903Z,13.93
2023-01-07T23:51:13.664Z,13.47
2023-01-07T23:54:19.340Z,14.17
2023-01-07T23:57:24.601Z,7.00
